SKAR/AXM METAR and TAF weather

Enter ICAO airport designator
Station Type Date Time Source
SKAR METAR 2021/02/28 17:00 UTC NOAA

SKAR 281700Z 22003KT 9999 BKN020 26/20 Q1016 RMK A2999


Station Type Date Time Source
SKAR Decoded METAR 2021/02/28 17:00 UTC NOAA

Armenia / El Eden, Colombia (SKAR) 04-30N 075-43W 1219M
Feb 28, 2021 - 12:00 PM EST / 2021.02.28 1700 UTC
Wind: from the SW (220 degrees) at 3 MPH (3 KT):0
Visibility: greater than 7 mile(s):0
Sky conditions: mostly cloudy
Temperature: 78 F (26 C)
Dew Point: 68 F (20 C)
Relative Humidity: 69%
Pressure (altimeter): 30.00 in. Hg (1016 hPa)
ob: SKAR 281700Z 22003KT 9999 BKN020 26/20 Q1016 RMK A2999
cycle: 17

Station Type Date Time Source
SKAR TAF 2020/12/14 06:45 UTC NOAA

TAF SKAR 140430Z 1406/1506NIL

Example: see airport list